Home   Weather   Columbus Township Park   Past weeks
Flag for USA

Past Weather in Columbus Township Park, Michigan, USA — Yesterday and Last 2 Weeks

Currently: 25 °F. Clear. (Weather station: Schoolcraft County Airport, USA). See more current weather

Past Weather in Columbus Township Park — Graph

°F

Columbus Township Park Temperature Yesterday

Maximum temperature yesterday: 53 °F (at 12:55 pm)
Minimum temperature yesterday: 31 °F (at 11:55 pm)
Average temperature yesterday: 41 °F

High & Low Weather Summary for the Past Weeks

 TemperatureHumidityPressure
High68 °F (Apr 8, 4:15 pm)98% (Apr 9, 11:35 pm)30.21 "Hg (Apr 9, 11:35 pm)
Low24 °F (Apr 18, 3:35 am)25% (Apr 17, 4:55 pm)29.36 "Hg (Apr 11, 1:35 pm)
Average44 °F79%29.84 "Hg
* Reported Apr 3 4:15 am — Apr 18 4:35 am, Columbus Township Park. Weather by CustomWeather, © 2021

Note: Actual official high and low records may vary slightly from our data, if they occured in-between our weather recording intervals... More about our weather records

Columbus Township Park Weather History for the Previous 24 Hours

Scroll right to see more
 ConditionsComfort  
Time TempWeatherWind HumidityBarometerVisibility
4:35 am
Sun, Apr 18
25 °FClear.No wind84%29.92 "Hg10 mi
3:55 am25 °FClear.No wind87%29.92 "Hg10 mi
3:35 am24 °FClear.No wind87%29.92 "Hg10 mi
3:15 am25 °FClear.No wind89%29.93 "Hg10 mi
2:55 am25 °FClear.No wind88%29.93 "Hg10 mi
2:35 am27 °FClear.No wind86%29.93 "Hg10 mi
2:15 am28 °FClear.No wind86%29.94 "Hg10 mi
1:55 am28 °FClear.No wind84%29.94 "Hg10 mi
1:35 am27 °FClear.No wind86%29.94 "Hg10 mi
1:15 am26 °FClear.3 mph87%29.94 "Hg10 mi
12:55 am28 °FClear.No wind82%29.94 "Hg10 mi
12:35 am27 °FClear.No wind83%29.94 "Hg10 mi
12:15 am29 °FClear.No wind77%29.94 "Hg10 mi
11:55 pm
Sat, Apr 17
31 °FClear.No wind73%29.94 "Hg10 mi
11:35 pm32 °FClear.No wind70%29.94 "Hg10 mi
11:15 pm32 °FClear.3 mph69%29.94 "Hg10 mi
10:55 pm32 °FClear.5 mph68%29.94 "Hg10 mi
10:35 pm33 °FClear.7 mph66%29.94 "Hg10 mi
10:15 pm34 °FClear.9 mph62%29.94 "Hg10 mi
9:55 pm35 °FClear.8 mph60%29.94 "Hg10 mi
9:35 pm36 °FClear.10 mph58%29.93 "Hg10 mi
9:15 pm37 °FClear.14 mph54%29.93 "Hg10 mi
8:55 pm38 °FClear.10 mph46%29.93 "Hg10 mi
8:35 pm40 °FClear.9 mph41%29.93 "Hg10 mi
8:15 pm41 °FSunny.12 mph35%29.92 "Hg10 mi
7:55 pm43 °FSunny.16 mph31%29.92 "Hg10 mi
7:35 pm45 °FSunny.12 mph36%29.92 "Hg10 mi
7:15 pm46 °FSunny.14 mph30%29.92 "Hg10 mi
6:55 pm47 °FSunny.12 mph28%29.92 "Hg10 mi
6:35 pm47 °FSunny.14 mph29%29.92 "Hg10 mi
6:15 pm49 °FSunny.13 mph30%29.93 "Hg10 mi
5:55 pm49 °FSunny.14 mph26%29.92 "Hg10 mi
5:35 pm49 °FSunny.15 mph27%29.93 "Hg10 mi
4:55 pm50 °FSunny.14 mph25%29.93 "Hg10 mi
4:35 pm51 °FSunny.10 mph29%29.93 "Hg10 mi
4:15 pm51 °FSunny.13 mph28%29.93 "Hg10 mi
3:55 pm51 °FSunny.16 mph31%29.93 "Hg10 mi
3:35 pm50 °FSunny.14 mph30%29.93 "Hg10 mi
3:15 pm51 °FSunny.14 mph28%29.94 "Hg10 mi
2:55 pm52 °FSunny.13 mph28%29.94 "Hg10 mi
2:35 pm51 °FSunny.13 mph27%29.94 "Hg10 mi
2:15 pm53 °FSunny.14 mph29%29.94 "Hg10 mi
1:55 pm51 °FSunny.12 mph30%29.93 "Hg10 mi
1:35 pm51 °FScattered clouds.12 mph33%29.94 "Hg10 mi
12:55 pm53 °FSunny.10 mph32%29.94 "Hg10 mi
12:35 pm52 °FSunny.14 mph30%29.94 "Hg10 mi
12:15 pm51 °FSunny.15 mph32%29.94 "Hg10 mi
11:55 am50 °FSunny.13 mph32%29.94 "Hg10 mi
11:35 am50 °FSunny.14 mph33%29.94 "Hg10 mi
11:15 am49 °FSunny.10 mph33%29.94 "Hg10 mi
10:55 am48 °FSunny.10 mph40%29.94 "Hg10 mi
10:35 am47 °FScattered clouds.14 mph45%29.94 "Hg10 mi
10:15 am46 °FScattered clouds.10 mph49%29.95 "Hg10 mi
9:55 am44 °FScattered clouds.15 mph51%29.94 "Hg10 mi
9:35 am43 °FSunny.9 mph64%29.95 "Hg10 mi
8:55 am39 °FSunny.13 mph75%29.94 "Hg10 mi
8:35 am37 °FScattered clouds.9 mph82%29.94 "Hg10 mi
8:15 am36 °FScattered clouds.8 mph87%29.94 "Hg10 mi
7:55 am35 °FPartly sunny.8 mph90%29.94 "Hg10 mi
7:35 am34 °FOvercast.6 mph91%29.94 "Hg10 mi
7:15 am33 °FOvercast.6 mph92%29.94 "Hg10 mi
6:55 am32 °FScattered clouds.5 mph91%29.94 "Hg10 mi
6:35 am32 °FClear.3 mph90%29.93 "Hg10 mi
6:15 am31 °FClear.5 mph89%29.93 "Hg10 mi
5:55 am31 °FPassing clouds.5 mph88%29.93 "Hg10 mi
5:35 am32 °FOvercast.3 mph83%29.94 "Hg10 mi
5:15 am31 °FPassing clouds.3 mph82%29.94 "Hg10 mi
Weather by CustomWeather, © 2021

See weather overview